Time;durP1;ratioP1;P1;durP2;ratioP2;P2;SDS_P1;SDS_P2;PMS_P1;PMS_P2;Temp;Humidity;BMP_temperature;BMP_pressure;BME280_temperature;BME280_humidity;BME280_pressure;Samples;Min_cycle;Max_cycle;Signal;HPM_P1;HPM_P2
2021/08/21 00:01:56;;;;;;;3.63;2.70;;;20.90;99.90;;;;;;5094743;28;20449;-80
2021/08/21 00:04:24;;;;;;;3.13;2.83;;;20.90;99.90;;;;;;5084888;28;20583;-80
2021/08/21 00:06:52;;;;;;;4.10;3.57;;;20.90;99.90;;;;;;5073278;28;20463;-80
2021/08/21 00:09:21;;;;;;;7.13;3.37;;;20.90;99.90;;;;;;5089351;28;20526;-80
2021/08/21 00:11:50;;;;;;;4.83;3.37;;;20.90;99.90;;;;;;5091575;28;20494;-80
2021/08/21 00:14:18;;;;;;;7.13;3.23;;;20.90;99.90;;;;;;5093811;28;21096;-80
2021/08/21 00:16:46;;;;;;;5.27;3.30;;;20.90;99.90;;;;;;5092300;28;20828;-81
2021/08/21 00:19:15;;;;;;;4.67;2.87;;;20.80;99.90;;;;;;5093072;28;20439;-80
2021/08/21 00:21:43;;;;;;;3.67;3.00;;;20.80;99.90;;;;;;5074347;28;20449;-81
2021/08/21 00:24:11;;;;;;;4.13;3.40;;;20.80;99.90;;;;;;5093736;28;20454;-80
2021/08/21 00:26:39;;;;;;;6.40;3.17;;;20.80;99.90;;;;;;5093974;28;21018;-80
2021/08/21 00:29:08;;;;;;;4.20;3.63;;;20.70;99.90;;;;;;5074374;28;20446;-79
2021/08/21 00:31:37;;;;;;;3.70;3.30;;;20.70;99.90;;;;;;5092528;28;20454;-80
2021/08/21 00:34:05;;;;;;;3.10;2.33;;;20.70;99.90;;;;;;5093229;28;20470;-81
2021/08/21 00:36:33;;;;;;;9.23;3.50;;;20.60;99.90;;;;;;5074307;28;20474;-80
2021/08/21 00:39:01;;;;;;;3.70;3.20;;;20.60;99.90;;;;;;5093008;28;20453;-81
2021/08/21 00:41:30;;;;;;;8.20;2.63;;;20.60;99.90;;;;;;5091928;28;20441;-81
2021/08/21 00:43:58;;;;;;;3.40;3.00;;;20.60;99.90;;;;;;5092657;28;20465;-80
2021/08/21 00:46:28;;;;;;;4.00;3.10;;;20.60;99.90;;;;;;5072232;28;20447;-80
2021/08/21 00:48:56;;;;;;;3.30;2.80;;;20.60;99.90;;;;;;5072249;28;20423;-80
2021/08/21 00:51:24;;;;;;;3.50;3.10;;;20.50;99.90;;;;;;5072013;28;20465;-80
2021/08/21 00:53:52;;;;;;;3.57;2.73;;;20.50;99.90;;;;;;5053874;28;20465;-81
2021/08/21 00:56:20;;;;;;;3.80;3.50;;;20.40;99.90;;;;;;5072560;28;20478;-81
2021/08/21 00:58:48;;;;;;;6.63;3.43;;;20.40;99.90;;;;;;5054291;28;20508;-81
2021/08/21 01:01:16;;;;;;;2.90;2.67;;;20.40;99.90;;;;;;5054447;28;20431;-80
2021/08/21 01:03:46;;;;;;;3.10;2.90;;;20.40;99.90;;;;;;5053779;28;20474;-81
2021/08/21 01:06:14;;;;;;;4.23;3.57;;;20.40;99.90;;;;;;5072040;28;20438;-80
2021/08/21 01:08:42;;;;;;;3.70;3.40;;;20.40;99.90;;;;;;5072137;28;20980;-80
2021/08/21 01:11:11;;;;;;;3.63;2.30;;;20.40;99.90;;;;;;5071507;28;20443;-80
2021/08/21 01:13:39;;;;;;;3.97;3.43;;;20.40;99.90;;;;;;5069859;28;20463;-80
2021/08/21 01:16:07;;;;;;;7.10;4.00;;;20.40;99.90;;;;;;5078010;28;20482;-80
2021/08/21 01:18:35;;;;;;;4.10;3.70;;;20.40;99.90;;;;;;5091670;28;20536;-81
2021/08/21 01:21:05;;;;;;;3.10;2.90;;;20.40;99.90;;;;;;5091448;28;20897;-81
2021/08/21 01:23:33;;;;;;;2.90;2.70;;;20.30;99.90;;;;;;5091434;28;20507;-81
2021/08/21 01:26:01;;;;;;;4.27;2.43;;;20.30;99.90;;;;;;5092108;28;20446;-80
2021/08/21 01:28:31;;;;;;;3.00;2.80;;;20.30;99.90;;;;;;5091927;28;20442;-80
2021/08/21 01:30:59;;;;;;;3.27;2.90;;;20.30;99.90;;;;;;5092007;28;20944;-80
2021/08/21 01:33:27;;;;;;;3.80;3.50;;;20.30;99.90;;;;;;5091453;28;20490;-80
2021/08/21 01:35:55;;;;;;;3.47;3.17;;;20.30;99.90;;;;;;5091680;28;20839;-80
2021/08/21 01:38:24;;;;;;;4.53;3.77;;;20.20;99.90;;;;;;5091561;28;20434;-80
2021/08/21 01:40:55;;;;;;;2.83;2.63;;;20.20;99.90;;;;;;5073006;28;20492;-80
2021/08/21 01:43:24;;;;;;;3.97;3.47;;;20.20;99.90;;;;;;5090780;28;20473;-80
2021/08/21 01:45:53;;;;;;;4.50;2.80;;;20.20;99.90;;;;;;5091782;28;20806;-80
2021/08/21 01:48:21;;;;;;;3.90;3.10;;;20.10;99.90;;;;;;5090440;28;20463;-80
2021/08/21 01:50:50;;;;;;;3.67;3.30;;;20.10;99.90;;;;;;5074422;28;20453;-81
2021/08/21 01:53:18;;;;;;;3.27;2.60;;;20.10;99.90;;;;;;5081684;28;20539;-80
2021/08/21 01:55:47;;;;;;;3.90;3.60;;;20.10;99.90;;;;;;5091466;28;20888;-80
2021/08/21 01:58:20;;;;;;;4.00;3.20;;;20.00;99.90;;;;;;5090531;28;20446;-80
2021/08/21 02:00:49;;;;;;;3.80;3.50;;;20.00;99.90;;;;;;5091398;28;20518;-80
2021/08/21 02:03:19;;;;;;;3.80;3.50;;;20.00;99.90;;;;;;5090087;28;20458;-80
2021/08/21 02:05:47;;;;;;;3.53;2.97;;;20.00;99.90;;;;;;5091910;28;20434;-80
2021/08/21 02:08:15;;;;;;;3.60;3.30;;;20.00;99.90;;;;;;5091205;28;20880;-80
2021/08/21 02:10:43;;;;;;;5.33;3.80;;;20.00;99.90;;;;;;5090066;28;20504;-80
2021/08/21 02:13:11;;;;;;;3.13;2.80;;;19.90;99.90;;;;;;5089146;28;20522;-80
2021/08/21 02:15:39;;;;;;;3.30;2.77;;;19.90;99.90;;;;;;5090861;28;20527;-80
2021/08/21 02:18:07;;;;;;;3.90;2.97;;;19.90;99.90;;;;;;5090375;28;21243;-80
2021/08/21 02:20:37;;;;;;;4.10;2.67;;;19.90;99.90;;;;;;5091429;28;20503;-81
2021/08/21 02:23:05;;;;;;;3.70;3.17;;;19.80;99.90;;;;;;5091629;28;20473;-81
2021/08/21 02:25:33;;;;;;;5.77;3.40;;;19.80;99.90;;;;;;5091633;28;20457;-81
2021/08/21 02:28:07;;;;;;;2.93;2.63;;;19.80;99.90;;;;;;5090487;28;20438;-80
2021/08/21 02:30:37;;;;;;;3.83;2.80;;;19.80;99.90;;;;;;5091325;28;20502;-81
2021/08/21 02:33:05;;;;;;;3.20;2.87;;;19.80;99.90;;;;;;5072269;28;20474;-80
2021/08/21 02:35:34;;;;;;;3.57;2.80;;;19.80;99.90;;;;;;5091247;28;20570;-81
2021/08/21 02:38:04;;;;;;;3.33;3.03;;;19.80;99.90;;;;;;5090039;28;20601;-80
2021/08/21 02:40:33;;;;;;;3.70;2.63;;;19.70;99.90;;;;;;5090233;28;20434;-81
2021/08/21 02:43:01;;;;;;;3.67;2.93;;;19.70;99.90;;;;;;5090028;28;20460;-81
2021/08/21 02:45:29;;;;;;;3.90;3.13;;;19.70;99.90;;;;;;5090322;28;20450;-80
2021/08/21 02:47:57;;;;;;;2.70;2.50;;;19.60;99.90;;;;;;5071694;28;20478;-80
2021/08/21 02:50:25;;;;;;;3.67;3.30;;;19.70;99.90;;;;;;5090735;28;20493;-79
2021/08/21 02:52:53;;;;;;;3.23;2.77;;;19.60;99.90;;;;;;5090528;28;20458;-81
2021/08/21 02:55:23;;;;;;;3.83;3.50;;;19.60;99.90;;;;;;5090026;28;20442;-80
2021/08/21 02:57:51;;;;;;;3.57;3.27;;;19.60;99.90;;;;;;5072061;28;20695;-80
2021/08/21 03:00:20;;;;;;;4.43;3.30;;;19.60;99.90;;;;;;5090381;28;20800;-80
2021/08/21 03:02:48;;;;;;;2.93;2.70;;;19.60;99.90;;;;;;5072409;28;20469;-80
2021/08/21 03:05:17;;;;;;;2.90;2.70;;;19.60;99.90;;;;;;5073033;28;20441;-81
2021/08/21 03:07:45;;;;;;;5.73;2.43;;;19.60;99.90;;;;;;5090343;28;20443;-80
2021/08/21 03:10:14;;;;;;;4.07;3.37;;;19.50;99.90;;;;;;5089180;28;20475;-80
2021/08/21 03:12:44;;;;;;;3.93;3.50;;;19.50;99.90;;;;;;5088393;28;20470;-81
2021/08/21 03:15:12;;;;;;;3.70;3.40;;;19.50;99.90;;;;;;5071521;28;20905;-81
2021/08/21 03:17:40;;;;;;;4.67;3.37;;;19.50;99.90;;;;;;5071594;28;20836;-80
2021/08/21 03:20:09;;;;;;;2.97;2.60;;;19.50;99.90;;;;;;5089356;28;20457;-81
2021/08/21 03:22:37;;;;;;;5.20;3.37;;;19.50;1.00;;;;;;5092594;28;20462;-80
2021/08/21 03:25:06;;;;;;;3.87;2.30;;;19.40;1.00;;;;;;5093425;28;20906;-80
2021/08/21 03:27:34;;;;;;;3.27;2.97;;;19.40;1.00;;;;;;5094292;28;20817;-81
2021/08/21 03:30:04;;;;;;;3.53;3.23;;;19.40;1.00;;;;;;5092835;28;20452;-81
2021/08/21 03:32:33;;;;;;;3.07;2.80;;;19.40;1.00;;;;;;5093501;28;20534;-80
2021/08/21 03:35:01;;;;;;;3.33;2.90;;;19.40;1.00;;;;;;5093752;28;20437;-81
2021/08/21 03:37:29;;;;;;;3.43;3.00;;;19.40;1.00;;;;;;5094847;28;20485;-80
2021/08/21 03:39:58;;;;;;;3.50;3.00;;;19.40;1.00;;;;;;5092737;28;20454;-80
2021/08/21 03:42:26;;;;;;;3.03;2.37;;;19.40;1.00;;;;;;5075598;28;20467;-80
2021/08/21 03:44:54;;;;;;;3.33;3.03;;;19.30;1.00;;;;;;5092374;28;20460;-80
2021/08/21 03:47:24;;;;;;;3.70;3.00;;;19.30;1.00;;;;;;5093578;28;20437;-80
2021/08/21 03:49:52;;;;;;;4.10;3.07;;;19.30;1.00;;;;;;5091567;28;20448;-80
2021/08/21 03:52:20;;;;;;;3.77;3.10;;;19.30;1.00;;;;;;5093633;28;20498;-81
2021/08/21 03:54:48;;;;;;;4.00;3.10;;;19.30;1.00;;;;;;5092242;28;20457;-81
2021/08/21 03:57:17;;;;;;;3.70;3.10;;;19.30;1.00;;;;;;5093227;28;20479;-80
2021/08/21 03:59:45;;;;;;;3.30;3.00;;;19.20;1.00;;;;;;5091971;28;20471;-80
2021/08/21 04:02:13;;;;;;;3.60;3.27;;;19.30;1.00;;;;;;5093611;28;20433;-78
2021/08/21 04:04:43;;;;;;;3.50;2.80;;;19.20;1.00;;;;;;5092127;28;20461;-80
2021/08/21 04:07:16;;;;;;;4.47;3.23;;;19.20;1.00;;;;;;5074759;28;20487;-79
2021/08/21 04:09:44;;;;;;;2.73;2.53;;;19.20;1.00;;;;;;5090939;28;20438;-80
2021/08/21 04:12:14;;;;;;;3.53;3.10;;;19.20;1.00;;;;;;5091791;28;20442;-80
2021/08/21 04:14:42;;;;;;;3.10;2.77;;;19.20;1.00;;;;;;5091772;28;20442;-80
2021/08/21 04:17:10;;;;;;;3.70;3.40;;;19.10;1.00;;;;;;5092729;28;20526;-80
2021/08/21 04:19:38;;;;;;;5.10;3.50;;;19.20;1.00;;;;;;5091603;28;20445;-80
2021/08/21 04:22:08;;;;;;;3.23;2.97;;;19.20;1.00;;;;;;5092813;28;20845;-80
2021/08/21 04:24:36;;;;;;;3.60;2.63;;;19.10;1.00;;;;;;5091690;28;20542;-81
2021/08/21 04:27:04;;;;;;;4.50;3.00;;;19.10;1.00;;;;;;5074891;28;20941;-80
2021/08/21 04:29:32;;;;;;;3.63;3.27;;;19.10;1.00;;;;;;5091265;28;20433;-80
2021/08/21 04:32:02;;;;;;;3.27;2.90;;;19.20;1.00;;;;;;5092617;28;20510;-80
2021/08/21 04:34:34;;;;;;;3.20;2.90;;;19.20;1.00;;;;;;5091319;28;20474;-80
2021/08/21 04:37:03;;;;;;;3.07;2.77;;;19.20;1.00;;;;;;5074446;28;20480;-80
2021/08/21 04:39:33;;;;;;;3.93;3.63;;;19.10;1.00;;;;;;5091646;28;20445;-80
2021/08/21 04:42:01;;;;;;;4.10;3.00;;;19.10;1.00;;;;;;5074170;28;21117;-80
2021/08/21 04:44:29;;;;;;;3.00;2.53;;;19.10;1.00;;;;;;5091509;28;20461;-80
2021/08/21 04:46:57;;;;;;;3.43;3.23;;;19.10;1.00;;;;;;5091869;28;20948;-80
2021/08/21 04:49:25;;;;;;;3.60;3.03;;;19.10;1.00;;;;;;5091434;28;20438;-79
2021/08/21 04:51:54;;;;;;;2.77;2.50;;;19.10;1.00;;;;;;5092212;28;20503;-80
2021/08/21 04:54:22;;;;;;;3.33;2.67;;;19.10;1.00;;;;;;5073670;28;20478;-80
2021/08/21 04:56:52;;;;;;;3.43;3.07;;;19.20;1.00;;;;;;5092320;28;20454;-80
2021/08/21 04:59:20;;;;;;;4.50;3.17;;;19.10;1.00;;;;;;5107880;28;21335;-80
2021/08/21 05:01:48;;;;;;;2.87;2.53;;;19.20;1.00;;;;;;5112174;28;20968;-80
2021/08/21 05:04:16;;;;;;;4.07;3.10;;;19.20;1.00;;;;;;5111906;28;20805;-80
2021/08/21 05:06:44;;;;;;;3.40;3.10;;;19.20;1.00;;;;;;5112562;28;20444;-80
2021/08/21 05:09:13;;;;;;;3.10;2.80;;;19.20;1.00;;;;;;5112020;28;20462;-80
2021/08/21 05:11:41;;;;;;;2.93;2.20;;;19.20;1.00;;;;;;5109997;28;20455;-80
2021/08/21 05:14:10;;;;;;;2.80;2.53;;;19.20;1.00;;;;;;5104513;28;20477;-80
2021/08/21 05:16:42;;;;;;;3.50;2.43;;;19.20;1.00;;;;;;5090805;28;20818;-80
2021/08/21 05:19:15;;;;;;;3.80;2.83;;;19.20;1.00;;;;;;5091233;28;20473;-80
2021/08/21 05:21:51;;;;;;;3.77;3.07;;;19.20;1.00;;;;;;5090655;28;20466;-80
2021/08/21 05:24:19;;;;;;;3.77;3.20;;;19.30;1.00;;;;;;5073561;28;20461;-80
2021/08/21 05:26:48;;;;;;;4.13;3.73;;;19.30;1.00;;;;;;5072353;28;20477;-80
2021/08/21 05:29:18;;;;;;;7.57;4.90;;;19.30;1.00;;;;;;5073194;28;20491;-80
2021/08/21 05:31:47;;;;;;;6.93;4.43;;;19.30;1.00;;;;;;5090332;28;21134;-81
2021/08/21 05:34:15;;;;;;;26.93;13.27;;;19.30;1.00;;;;;;5091703;28;20457;-81
2021/08/21 05:36:43;;;;;;;28.60;14.87;;;19.40;1.00;;;;;;5090958;28;20475;-80
2021/08/21 05:39:12;;;;;;;49.27;21.00;;;19.40;1.00;;;;;;5090750;28;20479;-80
2021/08/21 05:41:40;;;;;;;29.17;14.53;;;19.40;1.00;;;;;;5090369;28;20591;-80
2021/08/21 05:44:08;;;;;;;18.80;11.10;;;19.40;1.00;;;;;;5089644;28;20484;-80
2021/08/21 05:46:37;;;;;;;15.20;8.70;;;19.40;1.00;;;;;;5089311;28;20453;-80
2021/08/21 05:49:05;;;;;;;15.87;7.67;;;19.50;1.00;;;;;;5072430;28;20444;-80
2021/08/21 05:51:34;;;;;;;9.37;5.27;;;19.50;1.00;;;;;;5072080;28;20446;-80
2021/08/21 05:54:02;;;;;;;5.90;4.50;;;19.50;1.00;;;;;;5091060;28;20458;-78
2021/08/21 05:56:30;;;;;;;5.00;4.60;;;19.50;1.00;;;;;;5090464;28;20444;-80
2021/08/21 05:58:58;;;;;;;4.63;4.23;;;19.60;1.00;;;;;;5072758;28;20503;-79
2021/08/21 06:01:26;;;;;;;6.53;4.43;;;19.50;1.00;;;;;;5089762;28;20498;-80
2021/08/21 06:03:57;;;;;;;4.67;3.70;;;19.60;1.00;;;;;;5091155;28;20536;-80
2021/08/21 06:06:25;;;;;;;3.20;2.90;;;19.70;1.00;;;;;;5071791;28;20522;-80
2021/08/21 06:08:53;;;;;;;4.97;4.20;;;19.70;1.00;;;;;;5090789;28;20714;-80
2021/08/21 06:11:21;;;;;;;3.60;3.30;;;19.80;1.00;;;;;;5089047;28;20476;-79
2021/08/21 06:13:49;;;;;;;5.10;4.20;;;19.80;1.00;;;;;;5091500;28;20477;-80
2021/08/21 06:16:17;;;;;;;5.17;4.57;;;19.80;1.00;;;;;;5090607;28;20454;-80
2021/08/21 06:18:46;;;;;;;5.03;3.83;;;19.90;1.00;;;;;;5091143;28;20477;-80
2021/08/21 06:21:16;;;;;;;5.10;4.60;;;19.90;1.00;;;;;;5090250;28;20503;-80
2021/08/21 06:23:44;;;;;;;4.27;3.70;;;19.90;1.00;;;;;;5072796;28;20602;-80
2021/08/21 06:26:12;;;;;;;4.80;4.30;;;19.90;1.00;;;;;;5090517;28;20446;-80
2021/08/21 06:28:40;;;;;;;4.80;4.30;;;20.00;1.00;;;;;;5091697;28;20442;-80
2021/08/21 06:31:08;;;;;;;4.30;3.90;;;20.10;1.00;;;;;;5091505;28;20446;-80
2021/08/21 06:33:36;;;;;;;5.53;4.17;;;20.10;1.00;;;;;;5091503;28;20457;-80
2021/08/21 06:36:05;;;;;;;5.03;3.80;;;20.20;1.00;;;;;;5091177;28;20442;-80
2021/08/21 06:38:35;;;;;;;4.90;4.50;;;20.30;1.00;;;;;;5091004;28;20495;-81
2021/08/21 06:41:03;;;;;;;4.67;3.90;;;20.40;1.00;;;;;;5090130;28;20459;-81
2021/08/21 06:43:31;;;;;;;3.93;3.53;;;20.50;1.00;;;;;;5091478;28;20886;-80
2021/08/21 06:45:59;;;;;;;3.60;3.10;;;20.60;1.00;;;;;;5074737;28;20506;-80
2021/08/21 06:48:29;;;;;;;4.23;3.80;;;20.80;1.00;;;;;;5070935;28;20442;-80
2021/08/21 06:50:57;;;;;;;5.30;3.77;;;20.90;1.00;;;;;;5069667;28;20439;-80
2021/08/21 06:53:29;;;;;;;3.60;3.27;;;21.00;1.00;;;;;;5051673;28;20975;-79
2021/08/21 06:56:01;;;;;;;4.50;4.10;;;21.30;1.00;;;;;;5075323;28;20502;-80
2021/08/21 06:58:29;;;;;;;5.00;4.50;;;21.40;1.00;;;;;;5094618;28;20473;-81
2021/08/21 07:00:57;;;;;;;3.20;3.00;;;21.50;1.00;;;;;;5094574;28;20438;-81
2021/08/21 07:03:26;;;;;;;4.90;3.27;;;21.60;1.00;;;;;;5076368;28;20560;-80
2021/08/21 07:05:54;;;;;;;4.10;3.70;;;21.70;1.00;;;;;;5076617;28;20502;-80
2021/08/21 07:08:22;;;;;;;3.67;3.23;;;21.80;99.90;;;;;;5076795;28;20442;-81
2021/08/21 07:10:50;;;;;;;4.00;3.70;;;21.90;99.90;;;;;;5075903;28;20445;-81
2021/08/21 07:13:20;;;;;;;5.03;3.37;;;22.00;99.90;;;;;;5093588;28;20459;-80
2021/08/21 07:15:50;;;;;;;2.87;2.57;;;22.10;99.90;;;;;;5095260;28;20451;-80
2021/08/21 07:18:18;;;;;;;3.50;3.20;;;22.20;99.90;;;;;;5094230;28;20449;-80
2021/08/21 07:20:46;;;;;;;3.20;2.90;;;22.50;99.90;;;;;;5076604;28;20483;-80
2021/08/21 07:23:15;;;;;;;3.27;2.97;;;22.60;99.90;;;;;;5094899;28;20517;-80
2021/08/21 07:25:44;;;;;;;2.87;2.67;;;22.80;99.90;;;;;;5095227;28;20444;-81
2021/08/21 07:28:12;;;;;;;3.47;2.80;;;22.90;99.90;;;;;;5095045;28;20448;-81
2021/08/21 07:30:42;;;;;;;5.40;3.00;;;23.00;99.90;;;;;;5095078;28;20459;-81
2021/08/21 07:33:10;;;;;;;3.63;3.33;;;23.10;99.90;;;;;;5094387;28;20521;-80
2021/08/21 07:35:38;;;;;;;4.17;3.77;;;23.10;99.90;;;;;;5077756;28;20498;-81
2021/08/21 07:38:06;;;;;;;3.70;2.77;;;23.10;99.90;;;;;;5094139;28;20452;-80
2021/08/21 07:40:35;;;;;;;2.70;2.50;;;23.40;99.90;;;;;;5076913;28;20465;-81
2021/08/21 07:43:03;;;;;;;2.87;2.67;;;23.60;99.90;;;;;;5076798;28;20477;-80
2021/08/21 07:45:31;;;;;;;3.53;2.53;;;23.70;99.90;;;;;;5095722;28;20461;-80
2021/08/21 07:48:01;;;;;;;4.47;1.97;;;23.80;99.90;;;;;;5093949;28;20452;-81
2021/08/21 07:50:29;;;;;;;3.07;2.77;;;24.10;99.90;;;;;;5095733;28;20432;-80
2021/08/21 07:52:57;;;;;;;4.40;2.83;;;24.10;99.90;;;;;;5094069;28;20868;-80
2021/08/21 07:55:26;;;;;;;3.03;2.73;;;24.10;99.90;;;;;;5095988;28;20530;-80
2021/08/21 07:57:54;;;;;;;2.40;2.20;;;24.00;99.90;;;;;;5094356;28;20433;-80
2021/08/21 08:00:23;;;;;;;2.90;2.47;;;23.80;99.90;;;;;;5095185;28;20484;-81
2021/08/21 08:02:51;;;;;;;3.63;3.33;;;23.80;99.90;;;;;;5093895;28;20458;-81
2021/08/21 08:05:21;;;;;;;2.80;2.60;;;23.70;99.90;;;;;;5098261;28;20815;-80
2021/08/21 08:07:49;;;;;;;3.07;2.77;;;23.70;99.90;;;;;;5092832;28;20471;-80
2021/08/21 08:10:18;;;;;;;3.50;2.13;;;23.60;99.90;;;;;;5075777;28;20469;-80
2021/08/21 08:12:46;;;;;;;3.30;3.10;;;23.60;99.90;;;;;;5092148;28;20936;-80
2021/08/21 08:15:14;;;;;;;3.67;2.60;;;23.50;99.90;;;;;;5094303;28;20440;-80
2021/08/21 08:17:42;;;;;;;2.33;2.13;;;23.50;99.90;;;;;;5093185;28;20440;-81
2021/08/21 08:20:11;;;;;;;3.40;3.07;;;23.60;99.90;;;;;;5094177;28;20483;-81
2021/08/21 08:22:41;;;;;;;3.20;2.90;;;23.60;99.90;;;;;;5094184;28;20469;-81
2021/08/21 08:25:10;;;;;;;3.07;2.77;;;23.70;99.90;;;;;;5094885;28;20471;-81
2021/08/21 08:27:38;;;;;;;7.23;3.60;;;23.70;99.90;;;;;;5093167;28;20514;-81
2021/08/21 08:30:07;;;;;;;3.57;2.97;;;23.70;99.90;;;;;;5076359;28;20507;-81
2021/08/21 08:32:35;;;;;;;2.77;2.40;;;23.70;99.90;;;;;;5093569;28;20460;-80
2021/08/21 08:35:04;;;;;;;3.00;2.67;;;23.80;99.90;;;;;;5093828;28;20449;-80
2021/08/21 08:37:32;;;;;;;3.03;2.83;;;23.80;99.90;;;;;;5075374;28;20510;-80
2021/08/21 08:40:01;;;;;;;3.00;2.53;;;23.80;99.90;;;;;;5093390;28;20526;-80
2021/08/21 08:42:30;;;;;;;3.43;3.23;;;23.90;99.90;;;;;;5093369;28;20438;-80
2021/08/21 08:44:58;;;;;;;2.60;2.40;;;23.90;99.90;;;;;;5085151;28;20457;-80
2021/08/21 08:47:26;;;;;;;2.57;2.37;;;23.90;99.90;;;;;;5073680;28;20455;-80
2021/08/21 08:50:02;;;;;;;3.37;2.70;;;24.00;99.90;;;;;;5073559;28;20434;-81
2021/08/21 08:52:31;;;;;;;4.00;3.70;;;24.00;99.90;;;;;;5055435;28;20457;-80
2021/08/21 08:55:01;;;;;;;3.47;2.73;;;24.10;99.90;;;;;;5055114;28;20469;-79
2021/08/21 08:57:35;;;;;;;3.03;2.60;;;24.10;99.90;;;;;;5073430;28;20445;-81
2021/08/21 09:00:06;;;;;;;2.73;2.53;;;24.10;99.90;;;;;;5073154;28;20547;-80
2021/08/21 09:02:36;;;;;;;2.33;2.13;;;24.10;99.90;;;;;;5073555;28;20470;-80
2021/08/21 09:05:07;;;;;;;3.00;2.60;;;24.10;99.90;;;;;;5073639;28;20458;-81
2021/08/21 09:07:42;;;;;;;2.90;2.57;;;24.20;99.90;;;;;;5074538;28;20447;-81
2021/08/21 09:10:17;;;;;;;2.27;2.07;;;24.20;99.90;;;;;;5071104;28;20880;-80
2021/08/21 09:12:45;;;;;;;3.67;3.07;;;24.30;99.90;;;;;;5083041;28;20469;-81
2021/08/21 09:15:25;;;;;;;2.60;2.40;;;24.40;99.90;;;;;;5091854;28;20459;-80
2021/08/21 09:18:06;;;;;;;2.77;2.57;;;24.50;99.90;;;;;;5093490;28;20449;-80
2021/08/21 09:20:50;;;;;;;3.20;2.83;;;24.50;99.90;;;;;;5090667;28;20484;-80
2021/08/21 09:23:24;;;;;;;3.27;2.57;;;24.40;99.90;;;;;;5093417;28;20479;-81
2021/08/21 09:25:56;;;;;;;3.77;2.90;;;24.40;99.90;;;;;;5091466;28;20445;-80
2021/08/21 09:28:27;;;;;;;2.93;2.73;;;24.50;99.90;;;;;;5092699;28;20534;-80
2021/08/21 09:31:03;;;;;;;4.63;3.10;;;24.60;99.90;;;;;;5092608;28;20963;-81
2021/08/21 09:33:32;;;;;;;3.77;3.37;;;24.60;99.90;;;;;;5092358;28;20620;-81
2021/08/21 09:36:00;;;;;;;6.10;3.63;;;24.60;99.90;;;;;;5091275;28;20965;-81
2021/08/21 09:38:30;;;;;;;6.53;4.70;;;24.60;99.90;;;;;;5092008;28;21004;-80
2021/08/21 09:41:02;;;;;;;4.30;3.90;;;24.50;99.90;;;;;;5073074;28;20530;-80
2021/08/21 09:43:33;;;;;;;5.33;3.90;;;24.60;99.90;;;;;;5092084;28;20465;-80
2021/08/21 09:46:11;;;;;;;5.77;4.67;;;24.70;99.90;;;;;;5070340;28;20446;-80
2021/08/21 09:48:56;;;;;;;3.90;3.50;;;24.70;99.90;;;;;;5070740;28;20446;-80
2021/08/21 09:51:48;;;;;;;5.40;4.40;;;24.70;99.90;;;;;;5071271;28;20446;-80
2021/08/21 09:54:17;;;;;;;4.80;4.40;;;24.70;99.90;;;;;;5051156;28;20556;-80
2021/08/21 09:56:53;;;;;;;3.90;3.60;;;24.70;99.90;;;;;;5071849;28;20852;-81
2021/08/21 09:59:34;;;;;;;5.03;4.40;;;24.70;99.90;;;;;;5069651;28;20450;-81
2021/08/21 10:02:07;;;;;;;5.37;4.37;;;24.70;99.90;;;;;;5053347;28;20953;-81
2021/08/21 10:04:37;;;;;;;5.70;5.07;;;24.80;99.90;;;;;;5089695;28;20822;-80
2021/08/21 10:07:07;;;;;;;5.33;4.83;;;24.70;99.90;;;;;;5092223;28;20442;-81
2021/08/21 10:09:38;;;;;;;4.43;4.03;;;24.80;99.90;;;;;;5090057;28;20503;-80
2021/08/21 10:12:11;;;;;;;4.10;3.80;;;25.00;99.90;;;;;;5090665;28;20441;-80
2021/08/21 10:14:40;;;;;;;4.80;4.37;;;24.90;99.90;;;;;;5090715;28;20821;-80
2021/08/21 10:17:09;;;;;;;4.43;4.10;;;25.00;99.90;;;;;;5091094;28;20442;-81
2021/08/21 10:19:38;;;;;;;4.33;4.00;;;25.10;99.90;;;;;;5090612;28;20513;-80
2021/08/21 10:22:08;;;;;;;4.17;3.77;;;25.20;99.90;;;;;;5090806;28;20988;-81
2021/08/21 10:24:39;;;;;;;4.63;4.17;;;25.10;99.90;;;;;;5072540;28;20462;-81
2021/08/21 10:27:14;;;;;;;5.13;4.70;;;25.20;99.90;;;;;;5091555;28;20525;-81
2021/08/21 10:30:01;;;;;;;6.70;4.60;;;25.20;99.90;;;;;;5090889;28;20445;-81
2021/08/21 10:32:31;;;;;;;4.57;4.10;;;25.30;99.90;;;;;;5072623;28;20471;-81
2021/08/21 10:34:59;;;;;;;5.30;4.20;;;25.40;99.90;;;;;;5073973;28;20890;-80
2021/08/21 10:37:33;;;;;;;4.43;4.10;;;25.40;99.90;;;;;;5072591;28;20874;-80
2021/08/21 10:40:36;;;;;;;6.93;4.90;;;25.40;99.90;;;;;;5091310;28;20495;-80
2021/08/21 10:43:07;;;;;;;5.43;4.33;;;25.30;99.90;;;;;;5072242;28;20481;-81
2021/08/21 10:45:50;;;;;;;5.20;4.70;;;25.40;99.90;;;;;;5078163;28;20459;-79
2021/08/21 10:48:53;;;;;;;5.03;4.63;;;25.40;99.90;;;;;;5071167;28;20794;-80
2021/08/21 10:51:38;;;;;;;4.73;4.33;;;25.50;99.90;;;;;;5071619;28;20426;-80
2021/08/21 10:54:43;;;;;;;3.90;3.50;;;25.40;99.90;;;;;;5076956;28;20453;-81
2021/08/21 10:57:31;;;;;;;4.77;4.37;;;25.50;99.90;;;;;;5090031;28;20433;-81
2021/08/21 11:00:00;;;;;;;4.63;4.10;;;25.60;99.90;;;;;;5091332;28;20944;-80
2021/08/21 11:02:44;;;;;;;4.30;4.00;;;25.60;99.90;;;;;;5091082;28;20568;-81
2021/08/21 11:05:55;;;;;;;4.67;4.27;;;25.70;99.90;;;;;;5073536;28;20445;-80
2021/08/21 11:08:25;;;;;;;4.70;4.20;;;25.80;99.90;;;;;;5073284;28;20948;-80
2021/08/21 11:11:21;;;;;;;6.50;4.10;;;25.80;99.90;;;;;;5090011;28;20430;-80
2021/08/21 11:13:55;;;;;;;5.10;4.60;;;25.80;99.90;;;;;;5099072;28;20883;-80
2021/08/21 11:16:44;;;;;;;5.03;4.53;;;25.80;99.90;;;;;;5089723;28;20454;-81
2021/08/21 11:19:13;;;;;;;4.07;3.77;;;25.90;99.90;;;;;;5090522;28;20487;-81
2021/08/21 11:21:41;;;;;;;4.73;4.33;;;26.00;99.90;;;;;;5089686;28;20944;-80
2021/08/21 11:24:26;;;;;;;4.07;3.70;;;26.10;99.90;;;;;;5091101;28;20815;-81
2021/08/21 11:27:31;;;;;;;4.07;3.77;;;26.10;99.90;;;;;;5089793;28;20827;-82
2021/08/21 11:30:24;;;;;;;6.60;3.93;;;26.10;99.90;;;;;;5051260;28;20470;-81
2021/08/21 11:33:03;;;;;;;5.30;3.90;;;26.10;99.90;;;;;;5050626;28;21030;-80
2021/08/21 11:35:35;;;;;;;5.50;4.17;;;26.20;99.90;;;;;;5051260;28;20592;-81
2021/08/21 11:38:06;;;;;;;4.83;4.53;;;26.20;99.90;;;;;;5052093;28;20538;-80
2021/08/21 11:40:40;;;;;;;4.63;4.33;;;26.20;99.90;;;;;;5068362;28;20510;-81
2021/08/21 11:43:10;;;;;;;4.50;4.10;;;26.20;99.90;;;;;;5071345;28;20450;-80
2021/08/21 11:45:39;;;;;;;5.27;4.80;;;26.20;99.90;;;;;;5067902;28;20996;-80
2021/08/21 11:48:10;;;;;;;3.80;3.60;;;26.20;99.90;;;;;;5094081;28;20449;-81
2021/08/21 11:50:39;;;;;;;4.20;3.90;;;26.20;99.90;;;;;;5092067;28;20519;-81
2021/08/21 11:53:10;;;;;;;4.80;4.40;;;26.30;99.90;;;;;;5093063;28;20980;-80
2021/08/21 11:55:39;;;;;;;3.43;3.20;;;26.30;99.90;;;;;;5074282;28;20464;-81
2021/08/21 11:58:09;;;;;;;3.93;3.50;;;26.30;99.90;;;;;;5093802;28;21137;-81
2021/08/21 12:00:40;;;;;;;4.40;4.10;;;26.40;99.90;;;;;;5092138;28;20513;-81
2021/08/21 12:03:13;;;;;;;3.83;3.53;;;26.40;99.90;;;;;;5075188;28;20473;-81
2021/08/21 12:05:42;;;;;;;3.87;3.57;;;26.40;99.90;;;;;;5091444;28;20449;-81
2021/08/21 12:08:29;;;;;;;3.80;3.50;;;26.40;99.90;;;;;;5093124;28;20481;-79
2021/08/21 12:10:58;;;;;;;3.60;3.30;;;26.40;99.90;;;;;;5091753;28;20438;-81
2021/08/21 12:13:29;;;;;;;3.90;3.60;;;26.40;99.90;;;;;;5093305;28;20526;-80
2021/08/21 12:15:59;;;;;;;5.43;4.10;;;26.40;99.90;;;;;;5092082;28;20818;-81
2021/08/21 12:18:29;;;;;;;3.97;3.43;;;26.50;99.90;;;;;;5075189;28;20442;-81
2021/08/21 12:20:57;;;;;;;3.53;3.23;;;26.60;99.90;;;;;;5093181;28;20495;-80
2021/08/21 12:23:25;;;;;;;5.73;3.57;;;26.60;99.90;;;;;;5094048;28;20460;-80
2021/08/21 12:25:55;;;;;;;3.60;3.30;;;26.70;99.90;;;;;;5092402;28;20446;-80
2021/08/21 12:28:25;;;;;;;3.60;3.30;;;26.70;99.90;;;;;;5092447;28;20422;-81
2021/08/21 12:30:58;;;;;;;9.93;4.43;;;26.70;99.90;;;;;;5091537;28;20438;-81
2021/08/21 12:33:29;;;;;;;3.37;3.03;;;26.70;99.90;;;;;;5074624;28;20522;-79
2021/08/21 12:36:09;;;;;;;3.50;3.30;;;26.80;99.90;;;;;;5091825;28;20474;-81
2021/08/21 12:38:37;;;;;;;3.70;3.40;;;26.80;99.90;;;;;;5073735;28;20483;-81
2021/08/21 12:41:06;;;;;;;3.97;3.40;;;26.80;99.90;;;;;;5091746;28;20718;-81
2021/08/21 12:43:35;;;;;;;3.63;3.33;;;26.90;99.90;;;;;;5092735;28;20461;-81
2021/08/21 12:46:03;;;;;;;3.87;3.67;;;26.90;99.90;;;;;;5074938;28;20446;-81
2021/08/21 12:48:33;;;;;;;4.70;4.33;;;27.00;99.90;;;;;;5072093;28;20508;-81
2021/08/21 12:51:01;;;;;;;3.50;3.20;;;27.00;99.90;;;;;;5072134;28;20450;-81
2021/08/21 12:53:29;;;;;;;4.23;3.70;;;26.90;99.90;;;;;;5081096;28;20476;-80
2021/08/21 12:56:12;;;;;;;4.30;3.90;;;27.00;99.90;;;;;;5074177;28;20438;-80
2021/08/21 12:58:40;;;;;;;4.03;3.73;;;27.00;99.90;;;;;;5091039;28;20446;-82
2021/08/21 13:01:09;;;;;;;3.90;3.50;;;27.20;99.90;;;;;;5074301;28;20442;-81
2021/08/21 13:03:39;;;;;;;4.17;3.20;;;27.10;99.90;;;;;;5091691;28;20450;-81
2021/08/21 13:06:07;;;;;;;4.60;3.40;;;27.10;99.90;;;;;;5092409;28;20430;-81
2021/08/21 13:08:37;;;;;;;3.87;3.40;;;27.20;99.90;;;;;;5091278;28;20854;-80